Eastsound, WA

5:21 AM PDT on May 24, 2015 (GMT -0700)
Whidbey Island Naval Air Station | | Change Station
CLOSE
Current Station
Airport
Location: Whidbey Island,
Elevation: 46 ft
Nearby Weather Stations

Elev 46 ft 48.35 °N, 122.66 °W | Updated 25 minutes ago

Overcast
Overcast
53 °F
Feels Like 53 °F
N
7
Wind Variable Wind from SW

Today
High -- | Low -- °F
--% Chance of Precip.
Yesterday
High -- | Low -- °F
Precip. -- in
5:20 AM 8:57 PM
Waxing Crescent, 38% visible
Pressure 30.19 in
Visibility 10.0 miles
Clouds Mostly Cloudy 1000 ft
Overcast 2000 ft
Dew Point 51 °F
Humidity 93%
Rainfall 0.00 in
Snow Depth Not available.
UV 0 out of 12
Pollen 7.20 out of 12
Air Quality Not available.
Flu Activity Sporadic
METAR KNUW 241156Z 23006KT 10SM BKN010 OVC020 12/11 A3019 RMK AO2 SLP221 70003 T01170106 10128 20117 58006 $

More Conditions Fewer Conditions

Pressure 30.19 in
Visibility 10.0 miles
Clouds Mostly Cloudy 1000 ft
Overcast 2000 ft
Dew Point 51 °F
Humidity 93%
Rainfall 0.00 in
Snow Depth Not available.
UV 0 out of 12
Pollen 7.20 out of 12
Air Quality Not available.
Flu Activity Sporadic
METAR KNUW 241156Z 23006KT 10SM BKN010 OVC020 12/11 A3019 RMK AO2 SLP221 70003 T01170106 10128 20117 58006 $

More Conditions Fewer Conditions

10-Day Weather Forecast

Almanac

Astronomy

May. 24, 2015 Rise Set
Actual Time
Civil Twilight
Nautical Twilight
Astronomical Twilight
Moon
Length of Visible Light
Length of Day
Tomorrow will be .
, % of the Moon is Illuminated

Today's Extremes

State Highs State Lows

Community

WunderPhotos

Upload Photos

1,823,724 photos uploaded!

WunderBlogs® & News

Nearby

Air Quality

  Air Quality AQ Index Pollutant
Not available.

Snow Depth

Station Depth Elevation

Earthquake Activity

City Distance Mag. Time & Date
Minimum magnitude displayed is 2.5.

Coastal Water Temperatures

Place Temperature

Stations

Nearby Weather Stations

Station Location Temp. Windchill Dew Point Humidity Wind Precip. Elev Updated Type